Time;durP1;ratioP1;P1;durP2;ratioP2;P2;SDS_P1;SDS_P2;PMS_P1;PMS_P2;Temp;Humidity;BMP_temperature;BMP_pressure;BME280_temperature;BME280_humidity;BME280_pressure;Samples;Min_cycle;Max_cycle;Signal;HPM_P1;HPM_P2
2023/03/22 00:04:31;;;;;;;6.00;4.95;;;;;;;10.66;100.00;99677.97;10471685;28;20563;-76
2023/03/22 00:09:33;;;;;;;5.38;4.88;;;;;;;10.76;100.00;99667.06;10505220;28;20041;-74
2023/03/22 00:14:35;;;;;;;6.60;5.57;;;;;;;10.58;100.00;99675.63;10505824;28;20074;-74
2023/03/22 00:19:37;;;;;;;6.80;6.20;;;;;;;10.52;100.00;99668.81;10506206;28;20041;-74
2023/03/22 00:24:38;;;;;;;5.70;5.15;;;;;;;10.61;100.00;99667.63;10505900;28;20048;-74
2023/03/22 00:29:41;;;;;;;7.97;5.63;;;;;;;10.57;100.00;99666.03;10487393;28;20594;-76
2023/03/22 00:34:43;;;;;;;5.93;5.40;;;;;;;10.44;100.00;99649.84;10504993;28;20075;-75
2023/03/22 00:39:45;;;;;;;5.30;4.82;;;;;;;10.33;100.00;99646.78;10506459;28;20394;-76
2023/03/22 00:44:46;;;;;;;8.65;5.75;;;;;;;10.33;100.00;99634.50;10489329;28;20505;-75
2023/03/22 00:49:48;;;;;;;6.07;5.30;;;;;;;10.28;100.00;99633.81;10488809;28;20086;-75
2023/03/22 00:54:51;;;;;;;7.03;5.95;;;;;;;10.20;100.00;99625.31;10472322;28;20143;-76
2023/03/22 00:59:54;;;;;;;7.25;6.55;;;;;;;10.19;100.00;99623.63;10485087;28;20110;-75
2023/03/22 01:04:56;;;;;;;7.93;6.13;;;;;;;10.17;100.00;99628.06;10503304;28;20040;-76
2023/03/22 01:10:00;;;;;;;6.95;6.30;;;;;;;10.14;100.00;99622.94;10485842;28;20044;-75
2023/03/22 01:15:03;;;;;;;9.57;6.82;;;;;;;10.05;100.00;99629.38;10485260;28;20044;-75
2023/03/22 01:20:06;;;;;;;10.40;6.50;;;;;;;9.87;100.00;99632.63;10503480;28;20044;-75
2023/03/22 01:25:08;;;;;;;11.18;6.93;;;;;;;9.97;100.00;99628.78;10505611;28;20100;-75
2023/03/22 01:30:11;;;;;;;6.75;6.05;;;;;;;9.83;100.00;99618.78;10486888;28;20054;-76
2023/03/22 01:35:12;;;;;;;5.90;5.30;;;;;;;9.79;100.00;99603.19;10503619;28;20049;-75
2023/03/22 01:40:16;;;;;;;6.13;5.63;;;;;;;9.49;100.00;99600.72;10485135;28;20056;-75
2023/03/22 01:45:37;;;;;;;6.78;6.13;;;;;;;9.28;100.00;99599.66;10485628;28;20086;-75
2023/03/22 01:50:43;;;;;;;5.57;5.07;;;;;;;9.26;100.00;99593.63;10483535;28;20148;-76
2023/03/22 01:55:46;;;;;;;5.55;5.15;;;;;;;9.21;100.00;99586.81;10466831;28;20040;-76
2023/03/22 02:00:55;;;;;;;9.07;5.90;;;;;;;8.97;100.00;99591.09;10483242;28;20525;-75
2023/03/22 02:06:12;;;;;;;6.13;5.28;;;;;;;8.99;100.00;99589.31;10483438;28;20040;-75
2023/03/22 02:11:17;;;;;;;5.65;5.15;;;;;;;8.79;100.00;99584.69;10482836;28;20045;-75
2023/03/22 02:16:37;;;;;;;5.43;4.93;;;;;;;8.76;100.00;99592.63;10483716;28;20108;-75
2023/03/22 02:22:20;;;;;;;6.20;5.70;;;;;;;8.64;100.00;99595.66;10483735;28;20525;-75
2023/03/22 02:27:47;;;;;;;6.10;5.60;;;;;;;8.30;100.00;99594.88;10484020;28;20045;-75
2023/03/22 02:32:52;;;;;;;4.82;4.43;;;;;;;8.25;100.00;99595.91;10484671;28;20045;-76
2023/03/22 02:38:12;;;;;;;6.47;5.13;;;;;;;8.28;100.00;99603.69;10483551;28;20049;-75
2023/03/22 02:43:29;;;;;;;5.75;5.25;;;;;;;8.25;100.00;99591.53;10483592;28;20084;-76
2023/03/22 02:49:06;;;;;;;6.63;6.03;;;;;;;7.86;100.00;99592.66;10489412;28;20036;-75
2023/03/22 02:54:10;;;;;;;;;;;;;;;7.90;100.00;99594.28;10490345;28;20062;-76
2023/03/22 02:59:14;;;;;;;6.90;5.35;;;;;;;7.87;100.00;99579.53;10508445;28;20023;-76
2023/03/22 03:04:20;;;;;;;6.32;5.72;;;;;;;7.47;100.00;99578.00;10490285;28;20072;-75
2023/03/22 03:09:23;;;;;;;6.07;5.45;;;;;;;7.38;100.00;99578.22;10490932;28;20040;-75
2023/03/22 03:14:30;;;;;;;6.47;5.90;;;;;;;7.23;100.00;99579.50;10490375;28;20501;-75
2023/03/22 03:20:07;;;;;;;6.00;5.22;;;;;;;7.26;100.00;99576.81;10490898;28;20490;-74
2023/03/22 03:25:17;;;;;;;;;;;;;;;7.14;100.00;99581.50;10490345;28;20044;-75
2023/03/22 03:30:30;;;;;;;6.18;5.10;;;;;;;7.01;100.00;99584.41;10508591;28;20344;-76
2023/03/22 03:35:42;;;;;;;6.65;5.47;;;;;;;7.26;100.00;99587.28;10490403;28;20040;-75
2023/03/22 03:40:49;;;;;;;6.38;5.78;;;;;;;7.11;100.00;99571.97;10473637;28;20139;-76
2023/03/22 03:45:52;;;;;;;6.82;6.00;;;;;;;6.68;100.00;99572.13;10491918;28;20406;-76
2023/03/22 03:50:57;;;;;;;6.47;5.82;;;;;;;6.64;100.00;99565.25;10491052;28;20048;-76
2023/03/22 03:55:59;;;;;;;6.82;5.43;;;;;;;6.71;100.00;99570.31;10473415;28;20040;-76
2023/03/22 04:01:08;;;;;;;5.55;5.05;;;;;;;6.89;100.00;99560.31;10489367;28;20127;-74
2023/03/22 04:06:26;;;;;;;10.10;5.80;;;;;;;7.12;100.00;99570.19;10488860;28;20041;-74
2023/03/22 04:11:34;;;;;;;6.20;5.53;;;;;;;7.28;100.00;99572.38;10489693;28;20517;-73
2023/03/22 04:16:37;;;;;;;10.45;4.93;;;;;;;7.44;100.00;99577.25;10489369;28;20068;-73
2023/03/22 04:21:43;;;;;;;5.60;5.10;;;;;;;7.42;100.00;99565.94;10490202;28;20051;-74
2023/03/22 04:26:45;;;;;;;4.70;4.07;;;;;;;7.41;100.00;99570.31;10488922;28;20040;-74
2023/03/22 04:31:55;;;;;;;4.18;3.78;;;;;;;7.40;100.00;99568.59;10489230;28;20383;-74
2023/03/22 04:37:02;;;;;;;;;;;;;;;7.40;100.00;99567.75;10489026;28;20047;-73
2023/03/22 04:42:11;;;;;;;4.72;4.28;;;;;;;7.46;100.00;99563.22;10487709;28;19970;-72
2023/03/22 04:47:13;;;;;;;6.15;5.55;;;;;;;7.44;100.00;99565.03;10487099;28;20464;-73
2023/03/22 04:52:16;;;;;;;7.82;7.03;;;;;;;7.36;100.00;99558.28;10485442;28;20049;-73
2023/03/22 04:57:25;;;;;;;7.97;7.15;;;;;;;7.33;100.00;99564.44;10503842;28;20040;-73
2023/03/22 05:02:27;;;;;;;8.60;6.63;;;;;;;7.25;100.00;99562.00;10503872;28;20044;-74
2023/03/22 05:07:30;;;;;;;10.05;6.60;;;;;;;7.22;100.00;99559.50;10484724;28;20044;-73
2023/03/22 05:12:34;;;;;;;7.78;6.63;;;;;;;7.37;100.00;99558.22;10484992;28;20045;-73
2023/03/22 05:17:56;;;;;;;12.02;7.95;;;;;;;7.35;100.00;99560.03;10483667;28;20040;-73
2023/03/22 05:23:01;;;;;;;7.75;7.05;;;;;;;7.38;100.00;99557.31;10483248;28;20071;-73
2023/03/22 05:28:05;;;;;;;7.82;7.05;;;;;;;7.62;100.00;99557.59;10486257;28;20048;-73
2023/03/22 05:33:20;;;;;;;8.55;7.13;;;;;;;7.50;100.00;99558.75;10484765;28;20040;-73
2023/03/22 05:38:26;;;;;;;6.68;5.47;;;;;;;7.50;100.00;99562.22;10484556;28;20048;-73
2023/03/22 05:43:32;;;;;;;6.18;5.63;;;;;;;7.65;100.00;99560.09;10485272;28;20375;-74
2023/03/22 05:48:35;;;;;;;7.47;6.68;;;;;;;7.86;100.00;99562.13;10483137;28;20098;-74
2023/03/22 05:53:38;;;;;;;6.30;5.70;;;;;;;8.25;99.20;99561.88;10483515;28;20053;-73
2023/03/22 05:58:50;;;;;;;6.43;5.82;;;;;;;8.44;98.90;99549.09;10483420;28;20131;-73
2023/03/22 06:03:55;;;;;;;9.00;5.95;;;;;;;8.53;98.16;99554.06;10483388;28;20044;-73
2023/03/22 06:09:03;;;;;;;6.93;6.43;;;;;;;8.79;96.58;99564.56;10484009;28;20044;-73
2023/03/22 06:14:19;;;;;;;6.70;6.13;;;;;;;8.80;96.82;99568.91;10468822;28;20480;-74
2023/03/22 06:19:46;;;;;;;9.60;6.20;;;;;;;9.18;94.53;99552.84;10485600;28;20053;-73
2023/03/22 06:24:49;;;;;;;6.68;5.35;;;;;;;9.41;93.26;99546.81;10497629;28;20174;-72
2023/03/22 06:30:00;;;;;;;7.25;6.65;;;;;;;9.34;93.61;99548.75;10497599;28;20040;-73
2023/03/22 06:35:09;;;;;;;6.47;5.82;;;;;;;9.57;93.90;99547.97;10498207;28;20064;-73
2023/03/22 06:40:11;;;;;;;7.53;5.43;;;;;;;9.69;92.57;99550.16;10513651;28;20062;-75
2023/03/22 06:45:15;;;;;;;5.75;5.18;;;;;;;9.93;91.09;99558.91;10496892;28;20079;-74
2023/03/22 06:50:19;;;;;;;5.05;4.65;;;;;;;9.84;92.10;99546.97;10498861;28;20068;-73
2023/03/22 06:55:46;;;;;;;6.50;5.88;;;;;;;10.11;90.73;99552.97;10498559;28;20391;-73
2023/03/22 07:00:54;;;;;;;5.90;4.75;;;;;;;10.26;89.38;99556.81;10495607;28;20050;-73
2023/03/22 07:06:01;;;;;;;6.82;5.53;;;;;;;10.43;87.20;99550.94;10496580;28;20498;-72
2023/03/22 07:11:05;;;;;;;7.07;6.47;;;;;;;10.33;89.73;99537.28;10495416;28;20460;-71
2023/03/22 07:16:08;;;;;;;8.52;7.68;;;;;;;10.51;87.37;99540.97;10496444;28;20075;-71
2023/03/22 07:21:17;;;;;;;7.90;7.10;;;;;;;10.69;85.48;99541.16;10495352;28;20056;-72
2023/03/22 07:26:25;;;;;;;7.38;6.60;;;;;;;10.79;85.87;99545.97;10494836;28;20045;-72
2023/03/22 07:31:30;;;;;;;8.52;6.13;;;;;;;10.97;83.35;99546.16;10476537;28;20067;-71
2023/03/22 07:36:45;;;;;;;6.25;5.72;;;;;;;11.22;81.38;99543.38;10487581;28;20082;-72
2023/03/22 07:41:47;;;;;;;6.20;5.68;;;;;;;11.17;84.35;99547.97;10487778;28;20049;-71
2023/03/22 07:46:55;;;;;;;5.15;4.63;;;;;;;11.61;80.54;99546.91;10507543;28;20071;-72
2023/03/22 07:52:03;;;;;;;6.57;5.28;;;;;;;11.92;81.94;99547.38;10488815;28;20477;-70
2023/03/22 07:57:05;;;;;;;6.32;5.72;;;;;;;12.25;76.01;99537.06;10472373;28;20405;-72
2023/03/22 08:02:11;;;;;;;4.40;4.00;;;;;;;12.41;75.03;99539.84;10471142;28;20067;-72
2023/03/22 08:07:20;;;;;;;6.45;4.20;;;;;;;12.69;71.52;99537.59;10488673;28;20097;-73
2023/03/22 08:12:22;;;;;;;4.35;3.58;;;;;;;13.13;70.86;99545.94;10486874;28;20049;-72
2023/03/22 08:17:32;;;;;;;7.38;3.83;;;;;;;13.37;67.33;99546.56;10487890;28;20044;-72
2023/03/22 08:22:35;;;;;;;3.60;2.40;;;;;;;13.57;62.89;99550.78;10486209;28;20083;-72
2023/03/22 08:28:16;;;;;;;3.58;2.60;;;;;;;13.50;62.15;99549.41;10336869;28;20401;-71
2023/03/22 08:33:20;;;;;;;4.97;2.25;;;;;;;13.60;61.36;99540.06;10335957;28;20042;-72
2023/03/22 08:38:22;;;;;;;3.00;1.98;;;;;;;13.95;61.23;99533.88;10338518;28;20094;-71
2023/03/22 08:43:27;;;;;;;3.80;2.00;;;;;;;14.10;59.42;99538.31;10320318;28;20050;-72
2023/03/22 08:48:29;;;;;;;3.35;1.90;;;;;;;14.27;59.65;99534.78;10337536;28;20042;-72
2023/03/22 08:53:39;;;;;;;3.70;2.03;;;;;;;14.27;59.44;99532.13;10318881;28;20050;-72
2023/03/22 08:59:10;;;;;;;2.50;1.70;;;;;;;14.27;57.58;99535.63;10424607;28;20049;-71
2023/03/22 09:04:21;;;;;;;3.38;1.45;;;;;;;14.09;57.50;99537.47;10486423;28;20040;-72
2023/03/22 09:09:23;;;;;;;1.83;1.40;;;;;;;14.36;56.95;99526.31;10470335;28;20045;-72
2023/03/22 09:14:27;;;;;;;2.67;1.27;;;;;;;14.54;56.78;99527.13;10490128;28;20074;-71
2023/03/22 09:19:30;;;;;;;2.42;1.27;;;;;;;14.80;56.79;99517.72;10460267;28;20108;-71
2023/03/22 09:24:32;;;;;;;4.28;1.15;;;;;;;15.07;55.10;99516.13;10452734;28;20036;-71
2023/03/22 09:29:36;;;;;;;1.77;1.38;;;;;;;15.38;55.23;99509.00;10492170;28;20055;-70
2023/03/22 09:34:42;;;;;;;1.38;0.77;;;;;;;15.58;53.71;99508.66;10503972;28;20044;-72
2023/03/22 09:39:44;;;;;;;2.03;0.95;;;;;;;16.00;51.68;99501.69;10483963;28;20505;-71
2023/03/22 09:44:49;;;;;;;1.02;0.70;;;;;;;16.11;50.62;99487.75;10519505;28;20066;-67
2023/03/22 09:50:06;;;;;;;2.03;0.70;;;;;;;16.36;50.49;99474.63;10526870;28;20078;-66
2023/03/22 09:55:18;;;;;;;1.88;0.80;;;;;;;16.99;48.43;99477.63;10501377;28;20406;-67
2023/03/22 10:00:41;;;;;;;1.85;0.93;;;;;;;17.31;46.70;99472.78;10539408;22;20528;-72
2023/03/22 10:06:01;;;;;;;2.05;0.73;;;;;;;16.86;47.02;99466.97;10500846;28;20044;-72
2023/03/22 10:11:13;;;;;;;1.67;0.88;;;;;;;16.30;48.95;99469.72;10498088;28;20043;-72
2023/03/22 10:16:27;;;;;;;2.10;0.70;;;;;;;16.57;46.83;99467.09;10498504;28;20045;-72
2023/03/22 10:21:29;;;;;;;1.25;0.68;;;;;;;16.35;47.71;99469.44;10479646;28;20137;-72
2023/03/22 10:26:38;;;;;;;1.58;0.70;;;;;;;16.73;47.50;99458.13;10499935;28;20049;-72
2023/03/22 10:31:43;;;;;;;1.48;0.75;;;;;;;17.06;48.31;99449.72;10497764;28;20055;-72
2023/03/22 10:36:47;;;;;;;0.77;0.60;;;;;;;17.15;47.22;99446.44;10538579;28;20044;-70
2023/03/22 10:41:52;;;;;;;2.50;0.70;;;;;;;17.05;46.44;99442.72;10520547;28;20109;-71
2023/03/22 10:47:05;;;;;;;1.70;0.65;;;;;;;16.96;47.00;99425.63;10522171;28;20044;-72
2023/03/22 10:52:22;;;;;;;2.55;0.80;;;;;;;16.88;46.64;99423.47;10539265;28;20044;-72
2023/03/22 10:57:27;;;;;;;3.10;0.98;;;;;;;17.33;46.96;99420.44;10540067;28;20047;-72
2023/03/22 11:02:31;;;;;;;1.67;0.77;;;;;;;18.03;46.34;99423.44;10502376;28;20049;-72
2023/03/22 11:07:42;;;;;;;1.83;0.70;;;;;;;18.03;44.59;99426.09;10500180;28;20044;-71
2023/03/22 11:13:09;;;;;;;1.95;0.93;;;;;;;18.37;45.74;99423.63;10507492;28;20052;-71
2023/03/22 11:18:14;;;;;;;2.10;0.60;;;;;;;18.60;43.96;99412.16;10504404;28;20041;-71
2023/03/22 11:23:20;;;;;;;2.63;0.93;;;;;;;18.88;43.13;99388.78;10503842;28;20047;-72
2023/03/22 11:28:31;;;;;;;1.45;0.55;;;;;;;19.15;42.81;99386.66;10503972;28;20040;-72
2023/03/22 11:33:34;;;;;;;1.77;0.70;;;;;;;19.38;41.88;99371.53;10505631;28;20040;-71
2023/03/22 11:38:39;;;;;;;1.63;0.73;;;;;;;19.22;42.09;99370.22;10503944;28;20047;-71
2023/03/22 11:43:47;;;;;;;1.15;0.50;;;;;;;19.02;42.15;99351.28;10503214;28;20494;-72
2023/03/22 11:49:01;;;;;;;1.77;0.70;;;;;;;19.58;42.13;99332.66;10503889;28;20104;-71
2023/03/22 11:54:15;;;;;;;2.63;0.68;;;;;;;19.78;41.64;99335.53;10515424;28;20520;-71
2023/03/22 11:59:26;;;;;;;1.80;0.50;;;;;;;19.60;39.77;99328.06;10474426;28;20040;-71
2023/03/22 12:04:33;;;;;;;1.50;0.40;;;;;;;19.56;40.70;99321.25;10546053;28;20043;-71
2023/03/22 12:09:53;;;;;;;1.55;0.50;;;;;;;19.41;40.71;99315.34;10543937;28;20048;-71
2023/03/22 12:15:01;;;;;;;1.48;0.43;;;;;;;19.30;40.52;99317.13;10544923;28;20036;-73
2023/03/22 12:20:17;;;;;;;1.48;0.52;;;;;;;18.83;42.86;99311.06;10543459;28;20562;-71
2023/03/22 12:25:31;;;;;;;0.53;0.50;;;;;;;18.97;42.71;99294.03;10533694;28;20048;-71
2023/03/22 12:30:40;;;;;;;1.73;0.47;;;;;;;18.97;41.88;99302.84;10483415;28;20295;-72
2023/03/22 12:35:46;;;;;;;1.08;0.47;;;;;;;18.57;43.13;99287.25;10484260;28;20057;-72
2023/03/22 12:40:51;;;;;;;0.73;0.43;;;;;;;18.53;42.33;99292.94;10513075;28;20498;-70
2023/03/22 12:45:58;;;;;;;4.43;0.60;;;;;;;18.58;44.11;99283.63;10500249;28;20143;-71
2023/03/22 12:51:13;;;;;;;1.23;0.50;;;;;;;18.48;42.57;99287.13;10531939;28;20040;-72
2023/03/22 12:56:19;;;;;;;1.38;0.50;;;;;;;18.33;42.04;99279.34;10539342;28;20032;-72
2023/03/22 13:01:32;;;;;;;0.90;0.50;;;;;;;18.60;41.53;99286.19;10501625;28;20077;-72
2023/03/22 13:06:43;;;;;;;1.95;0.50;;;;;;;18.79;39.83;99282.97;10501320;28;20040;-75
2023/03/22 13:11:47;;;;;;;1.58;0.63;;;;;;;18.50;39.70;99277.19;10502364;28;20048;-72
2023/03/22 13:16:57;;;;;;;1.73;0.60;;;;;;;18.38;39.79;99269.22;10532549;28;20040;-72
2023/03/22 13:22:24;;;;;;;0.55;0.40;;;;;;;18.54;39.86;99252.91;10543540;28;20042;-72
2023/03/22 13:27:44;;;;;;;1.60;0.60;;;;;;;18.33;40.75;99254.56;10541728;28;20047;-71
2023/03/22 13:32:50;;;;;;;1.35;0.60;;;;;;;18.27;39.45;99255.00;10522470;28;20058;-72
2023/03/22 13:38:02;;;;;;;0.80;0.45;;;;;;;18.32;40.28;99250.19;10541342;28;20035;-71
2023/03/22 13:43:11;;;;;;;1.00;0.60;;;;;;;18.40;40.68;99240.66;10542656;28;20447;-72
2023/03/22 13:48:47;;;;;;;1.67;0.60;;;;;;;18.34;42.24;99233.16;10530141;28;20098;-72
2023/03/22 13:54:16;;;;;;;1.38;0.70;;;;;;;18.26;43.36;99230.22;10498010;28;20131;-71
2023/03/22 13:59:28;;;;;;;1.15;0.70;;;;;;;18.42;42.05;99227.25;10497925;28;20053;-72
2023/03/22 14:04:36;;;;;;;2.97;1.00;;;;;;;18.12;43.17;99214.47;10483411;28;20040;-71
2023/03/22 14:09:54;;;;;;;1.15;0.60;;;;;;;18.08;41.93;99221.84;10498536;28;20428;-71
2023/03/22 14:15:02;;;;;;;1.20;0.63;;;;;;;17.86;43.67;99203.97;10479594;28;20044;-71
2023/03/22 14:20:09;;;;;;;1.67;0.50;;;;;;;17.77;43.60;99198.50;10498181;28;20037;-72
2023/03/22 14:25:17;;;;;;;2.65;0.70;;;;;;;17.94;43.47;99211.41;10479821;28;20045;-72
2023/03/22 14:30:29;;;;;;;1.42;0.80;;;;;;;17.94;43.35;99203.41;10499582;28;20068;-71
2023/03/22 14:35:40;;;;;;;1.45;0.63;;;;;;;17.94;44.46;99190.13;10498029;28;20032;-72
2023/03/22 14:40:41;;;;;;;2.50;0.60;;;;;;;17.93;44.17;99188.44;10498134;28;20064;-72
2023/03/22 14:45:42;;;;;;;0.88;0.50;;;;;;;17.88;43.33;99190.56;10506553;28;20106;-72
2023/03/22 14:50:48;;;;;;;3.40;0.80;;;;;;;18.15;42.90;99195.63;10506733;28;20110;-72
2023/03/22 14:55:49;;;;;;;1.70;0.60;;;;;;;18.26;42.84;99190.31;10487356;28;20068;-72
2023/03/22 15:00:50;;;;;;;2.58;0.73;;;;;;;18.11;42.65;99191.50;10487458;28;20378;-72
2023/03/22 15:05:51;;;;;;;0.93;0.60;;;;;;;18.23;41.79;99185.22;10486840;28;20041;-72
2023/03/22 15:10:58;;;;;;;1.10;0.40;;;;;;;18.21;42.00;99183.66;10506101;28;20033;-72
2023/03/22 15:15:59;;;;;;;1.15;0.65;;;;;;;18.45;41.00;99183.56;10486546;28;20068;-72
2023/03/22 15:21:02;;;;;;;2.22;0.73;;;;;;;18.25;40.36;99174.50;10486152;28;20068;-72
2023/03/22 15:26:13;;;;;;;1.25;0.70;;;;;;;18.31;40.04;99171.34;10486336;28;20045;-72
2023/03/22 15:31:29;;;;;;;2.35;0.75;;;;;;;18.04;40.64;99174.31;10505116;28;20040;-72
2023/03/22 15:36:32;;;;;;;2.28;0.70;;;;;;;18.09;41.16;99175.66;10504111;28;20489;-72
2023/03/22 15:41:39;;;;;;;2.45;0.73;;;;;;;18.04;40.79;99176.97;10503436;28;20045;-72
2023/03/22 15:47:06;;;;;;;1.83;1.20;;;;;;;17.87;42.37;99173.78;10502972;28;20520;-72
2023/03/22 15:52:29;;;;;;;1.35;0.60;;;;;;;17.65;41.97;99174.50;10481355;28;20084;-71
2023/03/22 15:57:46;;;;;;;2.70;0.77;;;;;;;17.30;43.60;99184.22;10504966;28;20423;-72
2023/03/22 16:03:05;;;;;;;2.17;0.73;;;;;;;17.11;43.09;99185.56;10502689;22;20048;-72
2023/03/22 16:08:08;;;;;;;2.13;0.63;;;;;;;16.68;45.07;99192.19;10475376;28;20083;-71
2023/03/22 16:13:21;;;;;;;2.33;0.65;;;;;;;16.63;44.68;99188.06;10499273;28;20040;-72
2023/03/22 16:18:22;;;;;;;2.00;0.63;;;;;;;16.33;45.90;99188.38;10486306;28;20041;-70
2023/03/22 16:23:24;;;;;;;3.10;0.90;;;;;;;16.34;45.46;99190.09;10526022;28;20126;-73
2023/03/22 16:28:24;;;;;;;2.05;0.93;;;;;;;16.23;45.55;99197.94;10508164;28;20539;-71
2023/03/22 16:33:25;;;;;;;0.80;0.60;;;;;;;16.29;43.21;99196.66;10488360;28;20058;-70
2023/03/22 16:38:26;;;;;;;1.45;0.70;;;;;;;16.05;42.88;99204.50;10470707;28;20036;-71
2023/03/22 16:43:27;;;;;;;2.33;0.80;;;;;;;16.21;42.22;99206.97;10488554;28;20470;-70
2023/03/22 16:48:28;;;;;;;1.88;1.25;;;;;;;15.97;42.62;99205.00;10501110;28;20040;-69
2023/03/22 16:53:29;;;;;;;2.17;1.30;;;;;;;15.80;43.10;99203.47;10514511;28;20068;-70
2023/03/22 16:58:29;;;;;;;2.50;1.33;;;;;;;15.78;43.00;99201.88;10496162;28;20087;-71
2023/03/22 17:03:30;;;;;;;2.90;1.90;;;;;;;15.58;43.72;99211.97;10523853;28;20054;-72
2023/03/22 17:08:31;;;;;;;1.23;1.00;;;;;;;15.32;44.98;99211.00;10520208;28;20127;-71
2023/03/22 17:13:32;;;;;;;2.30;0.90;;;;;;;15.31;45.07;99211.94;10486370;28;20104;-71
2023/03/22 17:18:32;;;;;;;1.30;0.80;;;;;;;14.86;46.35;99216.56;10486669;28;20040;-71
2023/03/22 17:23:33;;;;;;;1.88;0.70;;;;;;;14.62;46.85;99218.09;10486713;28;20097;-71
2023/03/22 17:28:34;;;;;;;1.30;1.20;;;;;;;14.34;48.02;99226.78;10486961;28;20048;-70
2023/03/22 17:33:35;;;;;;;3.05;1.00;;;;;;;14.24;48.69;99236.22;10486317;28;20089;-71
2023/03/22 17:38:36;;;;;;;1.42;0.80;;;;;;;13.94;50.39;99237.06;10468241;28;20041;-70
2023/03/22 17:43:36;;;;;;;2.13;1.35;;;;;;;13.91;50.57;99233.78;10502790;28;20036;-71
2023/03/22 17:48:38;;;;;;;2.67;1.60;;;;;;;13.78;51.94;99255.63;10502891;28;20398;-70
2023/03/22 17:53:39;;;;;;;2.13;1.27;;;;;;;13.73;52.17;99267.41;10484758;28;20067;-70
2023/03/22 17:58:39;;;;;;;3.17;1.60;;;;;;;13.57;54.47;99276.16;10483555;28;20044;-71
2023/03/22 18:03:40;;;;;;;19.23;17.42;;;;;;;13.25;55.93;99282.38;10484076;28;20119;-71
2023/03/22 18:08:41;;;;;;;8.68;6.65;;;;;;;13.53;56.29;99286.97;10483537;28;20509;-70
2023/03/22 18:13:42;;;;;;;7.72;6.93;;;;;;;13.24;57.19;99270.97;10483256;28;20044;-72
2023/03/22 18:18:42;;;;;;;12.27;11.18;;;;;;;13.00;57.67;99273.13;10465803;28;20044;-71
2023/03/22 18:23:43;;;;;;;8.00;6.75;;;;;;;13.02;57.40;99280.97;10483338;28;20048;-72
2023/03/22 18:28:44;;;;;;;5.50;3.88;;;;;;;12.79;57.75;99282.16;10483165;28;20059;-71
2023/03/22 18:33:45;;;;;;;2.35;1.70;;;;;;;12.97;56.18;99286.50;10482687;28;20667;-71
2023/03/22 18:38:46;;;;;;;2.00;1.20;;;;;;;12.85;56.28;99290.63;10483489;28;20063;-70
2023/03/22 18:43:46;;;;;;;2.83;1.77;;;;;;;12.85;56.71;99287.97;10483330;28;20064;-70
2023/03/22 18:48:48;;;;;;;2.65;1.23;;;;;;;12.84;57.11;99299.47;10465600;28;20040;-71
2023/03/22 18:53:49;;;;;;;2.55;1.20;;;;;;;12.68;57.06;99308.25;10500380;28;20543;-71
2023/03/22 18:58:50;;;;;;;1.02;0.80;;;;;;;12.68;56.92;99297.72;10465455;28;20089;-72
2023/03/22 19:03:51;;;;;;;1.65;1.00;;;;;;;12.69;56.93;99302.06;10484656;28;20097;-72
2023/03/22 19:08:55;;;;;;;2.10;0.80;;;;;;;12.84;57.21;99304.75;10467924;28;20086;-71
2023/03/22 19:13:55;;;;;;;1.98;1.10;;;;;;;12.81;57.57;99304.91;10483495;28;20091;-72
2023/03/22 19:18:56;;;;;;;2.38;1.00;;;;;;;12.54;57.71;99312.47;10484135;28;20050;-71
2023/03/22 19:23:57;;;;;;;1.95;1.00;;;;;;;12.49;58.12;99309.22;10484415;28;20557;-71
2023/03/22 19:28:59;;;;;;;3.05;2.28;;;;;;;12.39;58.73;99307.97;10470877;28;20062;-72
2023/03/22 19:34:01;;;;;;;2.20;1.40;;;;;;;12.23;59.46;99300.00;10489512;28;20095;-71
2023/03/22 19:39:02;;;;;;;4.38;1.50;;;;;;;12.17;60.49;99294.16;10489687;28;20040;-71
2023/03/22 19:44:04;;;;;;;4.07;1.80;;;;;;;12.12;61.42;99300.50;10490011;28;20405;-71
2023/03/22 19:49:04;;;;;;;2.30;1.60;;;;;;;12.01;61.58;99292.31;10506509;28;20048;-71
2023/03/22 19:54:05;;;;;;;2.63;1.60;;;;;;;11.99;62.43;99296.78;10488872;28;20124;-71
2023/03/22 19:59:06;;;;;;;3.22;1.98;;;;;;;11.91;63.16;99296.31;10506290;28;20497;-72
2023/03/22 20:04:08;;;;;;;2.22;2.03;;;;;;;11.84;63.99;99295.75;10471766;28;20056;-70
2023/03/22 20:09:09;;;;;;;2.40;2.20;;;;;;;11.96;63.73;99302.22;10488681;28;20085;-72
2023/03/22 20:14:12;;;;;;;3.20;2.20;;;;;;;11.83;64.08;99298.47;10507010;28;20044;-73
2023/03/22 20:19:12;;;;;;;4.47;2.00;;;;;;;11.96;64.43;99299.59;10473224;28;20131;-72
2023/03/22 20:24:13;;;;;;;2.45;1.33;;;;;;;11.83;64.08;99293.22;10457477;28;20551;-72
2023/03/22 20:29:16;;;;;;;2.58;1.25;;;;;;;11.78;63.04;99293.41;10490185;28;20048;-71
2023/03/22 20:34:17;;;;;;;2.97;1.00;;;;;;;12.06;61.48;99292.06;10506245;28;20416;-71
2023/03/22 20:39:19;;;;;;;2.65;1.20;;;;;;;11.99;61.58;99278.34;10470555;28;20033;-71
2023/03/22 20:44:20;;;;;;;1.35;1.02;;;;;;;11.99;61.18;99282.75;10487566;28;20071;-70
2023/03/22 20:49:21;;;;;;;2.55;1.20;;;;;;;12.08;61.42;99277.03;10487765;28;20041;-71
2023/03/22 20:54:21;;;;;;;1.70;1.20;;;;;;;12.07;61.80;99284.09;10469352;28;20044;-71
2023/03/22 20:59:22;;;;;;;2.58;1.60;;;;;;;12.04;61.69;99265.81;10486430;28;20041;-71
2023/03/22 21:04:23;;;;;;;4.80;1.40;;;;;;;12.28;63.04;99274.25;10468587;28;20048;-71
2023/03/22 21:09:24;;;;;;;2.33;1.20;;;;;;;12.08;62.54;99285.78;10452326;28;20051;-72
2023/03/22 21:14:26;;;;;;;2.10;1.35;;;;;;;11.97;62.31;99280.22;10502440;28;20041;-71
2023/03/22 21:19:27;;;;;;;2.40;1.30;;;;;;;12.01;61.94;99276.50;10468391;28;20127;-72
2023/03/22 21:24:28;;;;;;;3.30;1.83;;;;;;;11.91;62.83;99272.63;10484882;28;20047;-71
2023/03/22 21:29:28;;;;;;;4.13;1.60;;;;;;;11.92;63.60;99276.94;10484763;28;20124;-70
2023/03/22 21:34:29;;;;;;;4.47;1.92;;;;;;;12.07;64.98;99278.81;10501829;28;20048;-71
2023/03/22 21:39:30;;;;;;;2.30;1.52;;;;;;;12.05;66.82;99283.31;10483610;28;20592;-71
2023/03/22 21:44:32;;;;;;;2.60;2.00;;;;;;;12.12;66.61;99289.13;10483768;28;20052;-71
2023/03/22 21:49:33;;;;;;;4.65;2.42;;;;;;;12.03;68.09;99276.41;10466735;28;20045;-71
2023/03/22 21:54:34;;;;;;;3.40;2.08;;;;;;;12.09;67.99;99262.94;10483248;28;20057;-71
2023/03/22 21:59:35;;;;;;;5.90;2.70;;;;;;;11.94;67.15;99254.00;10482959;28;20036;-72
2023/03/22 22:04:36;;;;;;;2.53;1.67;;;;;;;11.95;68.08;99244.31;10485010;28;20052;-72
2023/03/22 22:09:37;;;;;;;3.33;1.52;;;;;;;11.83;68.10;99232.66;10469297;28;20085;-72
2023/03/22 22:14:38;;;;;;;2.20;1.30;;;;;;;11.98;66.92;99221.31;10484837;28;20079;-73
2023/03/22 22:19:39;;;;;;;2.53;1.20;;;;;;;12.16;66.51;99214.28;10485520;28;20558;-72
2023/03/22 22:24:40;;;;;;;1.65;1.10;;;;;;;12.00;67.67;99210.72;10484154;28;20124;-73
2023/03/22 22:29:40;;;;;;;2.05;1.20;;;;;;;12.01;68.01;99196.63;10466814;28;20124;-73
2023/03/22 22:34:42;;;;;;;1.52;1.00;;;;;;;11.98;68.86;99207.31;10484699;28;20047;-72
2023/03/22 22:39:42;;;;;;;2.20;1.10;;;;;;;11.91;69.55;99196.25;10468237;28;20044;-72
2023/03/22 22:44:43;;;;;;;1.35;0.98;;;;;;;12.01;68.36;99192.22;10483454;28;20452;-72
2023/03/22 22:49:43;;;;;;;1.20;1.10;;;;;;;12.06;68.09;99202.50;10484010;28;20397;-72
2023/03/22 22:54:44;;;;;;;3.00;0.90;;;;;;;12.15;67.19;99204.66;10466799;28;20052;-72
2023/03/22 22:59:45;;;;;;;2.20;1.13;;;;;;;12.16;66.81;99205.53;10484735;28;20173;-72
2023/03/22 23:04:45;;;;;;;1.27;0.90;;;;;;;12.03;67.36;99200.03;10490298;28;20040;-72
2023/03/22 23:09:46;;;;;;;2.38;0.85;;;;;;;12.17;65.40;99191.41;10493643;28;20037;-72
2023/03/22 23:14:48;;;;;;;2.63;1.00;;;;;;;12.38;64.81;99195.56;10492274;28;20076;-73
2023/03/22 23:20:00;;;;;;;3.22;1.60;;;;;;;12.32;64.69;99190.63;10475061;28;20051;-73
2023/03/22 23:25:02;;;;;;;2.55;1.30;;;;;;;12.35;63.63;99179.91;10491304;28;20125;-72
2023/03/22 23:30:09;;;;;;;4.85;1.65;;;;;;;12.57;63.74;99174.34;10490984;28;20106;-73
2023/03/22 23:35:11;;;;;;;2.38;1.20;;;;;;;12.65;63.46;99168.66;10490929;28;20040;-73
2023/03/22 23:40:12;;;;;;;4.03;1.30;;;;;;;12.54;63.92;99167.47;10490197;28;20051;-73
2023/03/22 23:45:13;;;;;;;3.97;1.00;;;;;;;12.52;63.06;99166.69;10490190;28;20133;-72
2023/03/22 23:50:15;;;;;;;1.60;0.70;;;;;;;12.92;60.71;99158.41;10490680;28;20051;-72